Station: Goulburn Airport

  Atmospheric Gas Attenuation - ITU Rec 676-11   --------------- db/100km ---------------
Date Time Temp RH % AH g/m3 Dew Point Wind Direction Speed kph Gust kph Barometer mB Rainfall Since 9am 24GHz 47GHz 76GHz 122GHz 134GHz 241GHz
23 10:00 8.2 96 8.04 7.6 17 24 1029.4 0 18.6 27.3 41.1 107.6 99.3 340.5
23 09:50 7.4 99 7.88 7.3 13 15 1029.5 0 18.3 27.2 40.8 106.8 98.0 336.1
23 09:40 7.4 99 7.88 7.3 13 15 1029.5 0 18.3 27.2 40.8 106.8 98.0 336.1
23 09:30 7.3 99 7.83 7.2 15 15 1029.3 0 18.2 27.2 40.6 106.4 97.4 334.0
23 09:20 6.8 99 7.58 6.7 17 19 1029.3 0 17.7 26.9 39.8 104.2 94.5 323.7
23 09:10 6.6 99 7.48 6.5 17 19 1029.3 0 17.5 26.8 39.5 103.3 93.3 319.6
23 09:00 6.3 99 7.33 6.2 15 15 1029.3 0 17.2 26.6 39.0 102.0 91.6 313.4
23 08:50 6.3 99 7.33 6.2 17 17 1029.2 0 17.2 26.6 39.0 102.0 91.6 313.3
23 08:40 6.3 99 7.33 6.2 15 15 1029.1 0 17.2 26.6 39.0 101.9 91.6 313.3
23 08:30 6.2 99 7.28 6.1 15 15 1029 0 17.1 26.5 38.8 101.5 91.0 311.2
23 08:20 6.1 99 7.24 6 13 13 1029 0 17.0 26.5 38.7 101.2 90.5 309.6
23 08:10 5.9 99 7.14 5.8 17 20 1028.9 0 16.8 26.4 38.4 100.3 89.3 305.5
23 08:00 5.8 99 7.1 5.7 19 26 1028.7 0 16.7 26.3 38.2 99.9 88.9 303.8
23 07:50 5.8 99 7.1 5.7 20 24 1028.8 0 16.7 26.3 38.2 99.9 88.9 303.9
23 07:40 5.7 99 7.05 5.6 19 20 1028.7 0 16.6 26.3 38.1 99.5 88.3 301.8
23 07:30 5.6 99 7 5.5 17 20 1028.6 0 16.5 26.2 37.9 99.0 87.7 299.7
23 07:20 5.6 99 7 5.5 17 20 1028.5 0 16.5 26.2 37.9 99.0 87.7 299.6
23 07:10 5.6 99 7 5.5 20 22 1028.4 0 16.5 26.2 37.9 99.0 87.7 299.6
23 07:00 5.6 99 7 5.5 17 20 1028.4 0 16.5 26.2 37.9 99.0 87.7 299.6
23 06:50 5.6 99 7 5.5 20 22 1028.3 0 16.5 26.2 37.9 99.0 87.7 299.6
23 06:40 5.6 99 7 5.5 17 20 1028.2 0 16.5 26.2 37.9 99.0 87.7 299.6
23 06:30 5.6 99 7 5.5 19 24 1028 0 16.5 26.2 37.9 99.0 87.7 299.5
23 06:20 5.6 99 7 5.5 19 20 1027.9 0 16.5 26.2 37.9 99.0 87.6 299.5
23 06:10 5.5 100 7.03 5.5 13 15 1027.8 0 16.6 26.3 38.0 99.4 88.2 301.3
23 06:00 5.5 100 7.03 5.5 13 17 1027.8 0 16.6 26.3 38.0 99.4 88.2 301.3
23 05:50 5.5 100 7.03 5.5 11 13 1027.7 0 16.6 26.3 38.0 99.4 88.2 301.3
23 05:40 5.5 100 7.03 5.5 13 15 1027.6 0 16.6 26.3 38.0 99.4 88.2 301.3
23 05:30 5.3 99 6.87 5.2 20 22 1027.6 0 16.3 26.1 37.4 97.8 86.1 294.2
23 05:20 5.2 99 6.82 5.1 9 11 1027.5 0 16.1 26.0 37.3 97.4 85.5 292.1
23 05:10 5.1 99 6.78 5 11 11 1027.5 0 16.1 26.0 37.1 97.0 85.1 290.5
23 05:00 5.1 99 6.78 5 13 17 1027.4 0 16.1 26.0 37.1 97.0 85.1 290.5
23 04:50 5 99 6.73 4.9 17 20 1027.4 0 16.0 25.9 37.0 96.6 84.5 288.4
23 04:40 4.8 99 6.64 4.7 15 17 1027.3 0 15.8 25.8 36.7 95.8 83.4 284.7
23 04:30 4.8 99 6.64 4.7 15 15 1027.3 0 15.8 25.8 36.7 95.8 83.4 284.7
23 04:20 4.8 99 6.64 4.7 17 19 1027.2 0 15.8 25.8 36.7 95.8 83.4 284.6
23 04:10 4.8 99 6.64 4.7 17 19 1027.2 0 15.8 25.8 36.7 95.8 83.4 284.6
23 04:00 4.7 99 6.6 4.6 13 15 1027.3 0 15.7 25.8 36.6 95.5 83.0 283.1
23 03:50 4.7 99 6.6 4.6 13 15 1027.2 0 15.7 25.8 36.6 95.5 83.0 283.0
23 03:40 4.6 99 6.56 4.5 9 11 1027.2 0 15.6 25.7 36.4 95.1 82.5 281.4
23 03:30 4.4 99 6.47 4.3 7 9 1027.2 0 15.4 25.6 36.1 94.4 81.5 277.8
23 03:20 4.1 99 6.34 4 7 9 1027.2 0 15.2 25.5 35.7 93.3 80.0 272.4
23 03:10 4 99 6.3 3.9 7 9 1027.2 0 15.1 25.4 35.6 92.9 79.5 270.8
23 03:00 4.4 99 6.47 4.3 15 17 1027.2 0 15.4 25.6 36.1 94.4 81.5 277.8
23 02:50 3.5 99 6.09 3.4 11 13 1027.2 0 14.6 25.2 34.9 91.1 77.1 262.3
23 02:40 2.7 99 5.77 2.6 9 11 1027.3 0 14.0 24.9 33.9 88.5 73.4 249.3
23 02:30 2.6 99 5.74 2.5 0 6 1027.3 0 13.9 24.9 33.9 88.2 73.1 248.2
23 02:20 2.6 99 5.74 2.5 7 9 1027.4 0 13.9 24.9 33.9 88.3 73.1 248.2
23 02:10 3.3 99 6.01 3.2 11 13 1027.4 0 14.5 25.2 34.7 90.5 76.2 259.1
23 02:00 2.9 99 5.85 2.8 9 11 1027.4 0 14.1 25.0 34.2 89.2 74.4 252.6
23 01:50 3.8 99 6.22 3.7 7 7 1027.6 0 14.9 25.4 35.4 92.3 78.6 267.7
23 01:40 3.7 99 6.17 3.6 0 2 1027.6 0 14.8 25.3 35.2 91.8 78.1 265.6
23 01:30 3.9 99 6.26 3.8 7 7 1027.5 0 15.0 25.4 35.5 92.6 79.1 269.3
23 01:20 3.7 99 6.17 3.6 4 6 1027.6 0 14.8 25.3 35.2 91.8 78.1 265.6
23 01:10 4.1 99 6.34 4 9 11 1027.6 0 15.2 25.5 35.7 93.3 80.0 272.5
23 01:00 4.5 99 6.51 4.4 13 17 1027.5 0 15.5 25.7 36.3 94.7 82.0 279.4
23 00:50 5.2 99 6.82 5.1 11 13 1027.5 0 16.1 26.0 37.3 97.4 85.5 292.1
23 00:40 5.2 99 6.82 5.1 11 13 1027.5 0 16.1 26.0 37.3 97.4 85.5 292.1
23 00:30 4.8 99 6.64 4.7 9 11 1027.6 0 15.8 25.8 36.7 95.8 83.5 284.7
23 00:20 4.1 99 6.34 4 7 11 1027.6 0 15.2 25.5 35.7 93.3 80.0 272.5
23 00:10 4.7 99 6.6 4.6 17 17 1027.5 0 15.7 25.8 36.6 95.5 83.0 283.1
23 00:00 4.3 99 6.43 4.2 15 17 1027.6 0 15.3 25.6 36.0 94.1 81.1 276.2
22 23:50 4.2 99 6.38 4.1 15 17 1027.6 0 15.2 25.5 35.9 93.6 80.5 274.1
22 23:40 3.9 99 6.26 3.8 15 17 1027.7 0 15.0 25.4 35.5 92.6 79.1 269.3
22 23:30 3.8 99 6.22 3.7 9 11 1027.7 0 14.9 25.4 35.4 92.3 78.7 267.7
22 23:20 3.7 99 6.17 3.6 7 9 1027.7 0 14.8 25.3 35.2 91.9 78.1 265.6
22 23:10 3.5 99 6.09 3.4 7 9 1027.7 0 14.6 25.2 35.0 91.2 77.1 262.4
22 23:00 2.7 99 5.77 2.6 0 0 1027.7 0 14.0 24.9 34.0 88.5 73.5 249.4
22 22:50 3.4 99 6.05 3.3 4 6 1027.8 0 14.6 25.2 34.8 90.9 76.7 260.8
22 22:40 3.4 99 6.05 3.3 0 0 1027.8 0 14.6 25.2 34.8 90.9 76.7 260.8
22 22:30 3.9 99 6.26 3.8 0 0 1027.7 0 15.0 25.4 35.5 92.6 79.1 269.3
22 22:20 3.5 99 6.09 3.4 0 0 1027.8 0 14.6 25.3 35.0 91.2 77.2 262.4
22 22:10 3.1 96 5.75 2.5 0 4 1027.8 0 13.9 24.8 33.7 87.8 72.8 247.2
22 22:00 3.9 95 6 3.2 9 9 1027.8 0 14.4 25.0 34.4 89.7 75.5 256.7
22 21:50 4.2 98 6.32 3.9 7 9 1027.8 0 15.1 25.4 35.6 93.0 79.6 271.3
22 21:40 4.1 98 6.28 3.8 6 7 1027.7 0 15.0 25.4 35.5 92.6 79.2 269.6
22 21:30 3.9 99 6.26 3.8 4 6 1027.8 0 15.0 25.4 35.5 92.6 79.1 269.4
22 21:20 3.2 93 5.61 2.2 6 7 1027.7 0 13.6 24.5 33.1 86.2 70.8 240.1
22 21:10 4 93 5.92 3 6 6 1027.6 0 14.3 24.8 34.0 88.7 74.3 252.5
22 21:00 5 96 6.53 4.4 0 0 1027.5 0 15.5 25.6 36.1 94.3 81.7 278.6
22 20:50 4.4 97 6.34 4 0 0 1027.5 0 15.1 25.4 35.6 92.9 79.7 271.5
22 20:40 4.4 96 6.27 3.8 6 6 1027.3 0 15.0 25.3 35.3 92.1 78.7 268.0
22 20:30 4.3 96 6.23 3.7 13 13 1027.3 0 14.9 25.2 35.2 91.8 78.3 266.4
22 20:20 4 97 6.17 3.6 11 13 1027.3 0 14.8 25.2 35.1 91.5 77.7 264.5
22 20:10 4 96 6.11 3.4 13 13 1027.3 0 14.7 25.1 34.8 90.8 76.9 261.6
22 20:00 4.8 95 6.38 4.1 15 15 1027.3 0 15.2 25.4 35.6 92.9 79.8 272.0
22 19:50 5 94 6.39 4.1 17 17 1027.3 0 15.2 25.3 35.5 92.8 79.8 271.8
22 19:40 5.4 94 6.56 4.5 17 17 1027.3 0 15.6 25.5 36.1 94.2 81.7 278.6
22 19:30 5 95 6.46 4.3 15 17 1027.1 0 15.4 25.4 35.8 93.5 80.7 275.1
22 19:20 5 94 6.39 4.1 13 15 1027.1 0 15.2 25.3 35.5 92.7 79.7 271.7
22 19:10 5.2 92 6.34 4 13 15 1027 0 15.1 25.2 35.2 91.9 78.8 268.6
22 19:00 5.6 92 6.51 4.4 15 15 1026.9 0 15.5 25.3 35.7 93.3 80.8 275.4
22 18:50 5.8 91 6.52 4.4 13 15 1027 0 15.5 25.3 35.7 93.2 80.7 275.2
22 18:40 5.8 90 6.45 4.3 11 13 1026.9 0 15.3 25.2 35.4 92.4 79.7 271.8
22 18:30 5.1 88 6.02 3.3 11 13 1026.8 0 14.4 24.6 33.9 88.5 74.5 253.5
22 18:20 5.3 86 5.96 3.2 11 13 1026.8 0 14.3 24.5 33.6 87.6 73.5 250.1
22 18:10 5.7 85 6.05 3.4 13 13 1026.8 0 14.5 24.5 33.8 88.1 74.4 253.0
22 18:00 6.6 82 6.19 3.8 15 17 1026.5 0 14.7 24.5 34.0 88.6 75.4 256.7
22 17:50 7 81 6.28 4 17 19 1026.3 0 14.9 24.5 34.2 89.1 76.2 259.5
22 17:40 7.2 81 6.36 4.2 17 19 1026.2 0 15.1 24.6 34.4 89.8 77.0 262.6
22 17:30 7.3 80 6.32 4.1 19 22 1026.2 0 15.0 24.5 34.2 89.2 76.4 260.4

Last Refresh: 23-Jul-2024 09:44:18

Bureau of Meteorology